Time;durP1;ratioP1;P1;durP2;ratioP2;P2;SDS_P1;SDS_P2;PMS_P1;PMS_P2;Temp;Humidity;BMP_temperature;BMP_pressure;BME280_temperature;BME280_humidity;BME280_pressure;Samples;Min_cycle;Max_cycle;Signal;HPM_P1;HPM_P2
2022/04/12 00:00:47;;;;;;;12.20;8.90;;;8.80;99.90;;;;;;5007884;28;20202;-81
2022/04/12 00:03:14;;;;;;;14.13;9.07;;;8.80;99.90;;;;;;5001510;28;20296;-81
2022/04/12 00:05:41;;;;;;;14.23;9.60;;;8.70;99.90;;;;;;5003491;28;20212;-81
2022/04/12 00:08:08;;;;;;;16.30;8.97;;;8.60;99.90;;;;;;4996662;28;20627;-81
2022/04/12 00:10:36;;;;;;;13.27;8.63;;;8.60;99.90;;;;;;5003735;28;20308;-80
2022/04/12 00:13:03;;;;;;;14.17;9.10;;;8.50;99.90;;;;;;5003309;28;20328;-81
2022/04/12 00:15:30;;;;;;;20.33;8.90;;;8.50;99.90;;;;;;5017181;28;20291;-81
2022/04/12 00:20:43;;;;;;;13.80;8.57;;;8.40;99.90;;;;;;5003275;28;20290;-81
2022/04/12 00:23:12;;;;;;;14.67;9.77;;;8.20;99.90;;;;;;5008596;28;20252;-81
2022/04/12 00:25:39;;;;;;;16.47;9.50;;;8.20;99.90;;;;;;4998584;28;20762;-80
2022/04/12 00:28:06;;;;;;;14.50;8.50;;;8.20;99.90;;;;;;4996452;28;20243;-81
2022/04/12 00:30:33;;;;;;;16.00;8.83;;;8.10;99.90;;;;;;5007664;28;20246;-81
2022/04/12 00:32:59;;;;;;;15.17;9.33;;;8.00;99.90;;;;;;5004911;28;20781;-81
2022/04/12 00:35:27;;;;;;;14.93;9.23;;;7.90;99.90;;;;;;4999317;28;20743;-81
2022/04/12 00:37:54;;;;;;;13.30;8.77;;;7.90;99.90;;;;;;5005437;28;20303;-82
2022/04/12 00:40:24;;;;;;;15.93;9.77;;;7.80;99.90;;;;;;4995810;28;20194;-81
2022/04/12 00:42:52;;;;;;;15.23;9.23;;;7.80;99.90;;;;;;4998354;28;20267;-81
2022/04/12 00:45:19;;;;;;;14.53;8.90;;;7.70;99.90;;;;;;5006537;28;20667;-82
2022/04/12 00:47:46;;;;;;;15.17;8.53;;;7.70;99.90;;;;;;4996820;28;20207;-80
2022/04/12 00:50:13;;;;;;;12.57;8.77;;;7.60;99.90;;;;;;4997486;28;20279;-81
2022/04/12 00:52:48;;;;;;;14.27;9.77;;;7.60;99.90;;;;;;5004323;28;20755;-80
2022/04/12 00:55:15;;;;;;;17.40;10.43;;;7.70;99.90;;;;;;4996912;28;20607;-80
2022/04/12 00:57:42;;;;;;;15.10;8.93;;;7.50;99.90;;;;;;5001252;28;20264;-81
2022/04/12 01:00:10;;;;;;;17.40;10.00;;;7.50;99.90;;;;;;5003671;28;20301;-79
2022/04/12 01:02:39;;;;;;;14.60;9.20;;;7.40;99.90;;;;;;5000146;28;20245;-82
2022/04/12 01:05:06;;;;;;;14.03;8.63;;;7.40;99.90;;;;;;4996252;28;20218;-82
2022/04/12 01:07:34;;;;;;;12.87;8.53;;;7.40;99.90;;;;;;4997680;28;20324;-80
2022/04/12 01:10:02;;;;;;;15.87;8.90;;;7.30;99.90;;;;;;4997569;28;20733;-81
2022/04/12 01:12:30;;;;;;;11.47;8.07;;;7.30;99.90;;;;;;5001190;28;20328;-82
2022/04/12 01:15:11;;;;;;;15.37;9.20;;;7.30;99.90;;;;;;5002987;28;20242;-80
2022/04/12 01:17:38;;;;;;;14.63;9.17;;;7.30;99.90;;;;;;4997568;28;20270;-80
2022/04/12 01:20:06;;;;;;;13.90;9.40;;;7.30;99.90;;;;;;4999421;28;20237;-79
2022/04/12 01:22:36;;;;;;;18.37;9.17;;;7.30;99.90;;;;;;4995106;28;20570;-82
2022/04/12 01:25:04;;;;;;;12.70;8.43;;;7.20;99.90;;;;;;5000897;28;20660;-83
2022/04/12 01:27:32;;;;;;;13.10;8.40;;;7.30;99.90;;;;;;4998633;28;20681;-82
2022/04/12 01:29:58;;;;;;;14.90;9.07;;;7.30;99.90;;;;;;5000706;28;20338;-80
2022/04/12 01:32:25;;;;;;;13.47;8.83;;;7.30;99.90;;;;;;4998590;28;20744;-80
2022/04/12 01:34:52;;;;;;;13.27;8.63;;;7.10;99.90;;;;;;4999037;28;20572;-81
2022/04/12 01:37:19;;;;;;;14.73;8.97;;;7.20;99.90;;;;;;4998140;28;20218;-82
2022/04/12 01:39:46;;;;;;;17.50;9.10;;;7.20;99.90;;;;;;4999934;28;20221;-82
2022/04/12 01:42:13;;;;;;;13.30;8.63;;;7.10;99.90;;;;;;5000602;28;20273;-81
2022/04/12 01:44:39;;;;;;;15.67;9.03;;;7.10;99.90;;;;;;4996457;28;20258;-80
2022/04/12 01:47:06;;;;;;;15.67;9.60;;;7.00;99.90;;;;;;5002214;28;20217;-82
2022/04/12 01:49:33;;;;;;;15.40;9.40;;;6.90;99.90;;;;;;5000443;28;20566;-82
2022/04/12 01:52:02;;;;;;;16.63;10.50;;;6.90;99.90;;;;;;5006870;28;20356;-81
2022/04/12 01:54:29;;;;;;;15.63;9.40;;;6.80;99.90;;;;;;4994265;28;20626;-80
2022/04/12 01:56:55;;;;;;;17.70;9.57;;;6.80;99.90;;;;;;4998649;28;20322;-82
2022/04/12 01:59:23;;;;;;;13.27;9.17;;;6.80;99.90;;;;;;4993977;28;20237;-82
2022/04/12 02:01:49;;;;;;;14.57;9.73;;;6.70;99.90;;;;;;5001660;28;20357;-82
2022/04/12 02:04:16;;;;;;;15.40;9.60;;;6.70;99.90;;;;;;5002873;28;20206;-81
2022/04/12 02:06:43;;;;;;;14.27;9.50;;;6.60;99.90;;;;;;5000162;28;20583;-80
2022/04/12 02:09:10;;;;;;;14.57;8.90;;;6.60;99.90;;;;;;4998429;28;20758;-82
2022/04/12 02:11:37;;;;;;;15.73;10.43;;;6.60;99.90;;;;;;4998383;28;20211;-80
2022/04/12 02:14:04;;;;;;;15.83;9.33;;;6.50;99.90;;;;;;5000681;28;20242;-80
2022/04/12 02:16:31;;;;;;;17.17;9.53;;;6.50;99.90;;;;;;4995037;28;20616;-82
2022/04/12 02:18:58;;;;;;;15.33;9.87;;;6.50;99.90;;;;;;5000105;28;20210;-82
2022/04/12 02:21:24;;;;;;;16.03;9.97;;;6.40;99.90;;;;;;4997036;28;20749;-83
2022/04/12 02:23:51;;;;;;;16.37;9.27;;;6.40;99.90;;;;;;4998226;28;20790;-81
2022/04/12 02:26:18;;;;;;;16.73;10.33;;;6.30;99.90;;;;;;4992968;28;20214;-81
2022/04/12 02:28:45;;;;;;;16.80;10.70;;;6.30;99.90;;;;;;4994167;28;20206;-81
2022/04/12 02:31:11;;;;;;;14.93;10.10;;;6.30;99.90;;;;;;4997493;28;20212;-80
2022/04/12 02:33:40;;;;;;;16.63;10.63;;;5.70;99.90;;;;;;4991116;28;20237;-82
2022/04/12 02:36:07;;;;;;;18.70;10.50;;;5.90;99.90;;;;;;5000888;28;20213;-81
2022/04/12 02:38:33;;;;;;;18.33;11.23;;;6.30;99.90;;;;;;4997442;28;20325;-80
2022/04/12 02:41:00;;;;;;;20.27;11.90;;;6.10;99.90;;;;;;5000095;28;20293;-81
2022/04/12 02:43:27;;;;;;;17.70;10.57;;;6.20;99.90;;;;;;5001393;28;20776;-81
2022/04/12 02:45:54;;;;;;;18.30;10.63;;;6.20;99.90;;;;;;4997259;28;20551;-81
2022/04/12 02:48:21;;;;;;;17.10;10.73;;;6.20;99.90;;;;;;4995399;28;20287;-80
2022/04/12 02:50:48;;;;;;;15.57;9.90;;;6.20;99.90;;;;;;4995244;28;20295;-80
2022/04/12 02:53:14;;;;;;;20.87;10.90;;;6.20;99.90;;;;;;4994017;28;20313;-81
2022/04/12 02:55:41;;;;;;;20.40;11.27;;;6.20;99.90;;;;;;4998043;28;20740;-81
2022/04/12 02:58:08;;;;;;;17.47;11.23;;;6.20;99.90;;;;;;4995579;28;20213;-81
2022/04/12 03:00:35;;;;;;;16.53;10.53;;;6.10;99.90;;;;;;5001967;28;20233;-79
2022/04/12 03:03:02;;;;;;;17.83;9.93;;;6.10;99.90;;;;;;5001136;28;20604;-82
2022/04/12 03:05:29;;;;;;;17.77;10.63;;;6.10;99.90;;;;;;5013695;28;20209;-81
2022/04/12 03:07:55;;;;;;;17.20;11.40;;;6.10;99.90;;;;;;4996056;28;20282;-80
2022/04/12 03:10:22;;;;;;;17.10;11.20;;;6.10;99.90;;;;;;4993566;28;20739;-81
2022/04/12 03:12:50;;;;;;;16.47;10.53;;;6.10;99.90;;;;;;4996547;28;20281;-82
2022/04/12 03:15:17;;;;;;;20.13;10.33;;;6.10;99.90;;;;;;5006592;28;20210;-81
2022/04/12 03:17:44;;;;;;;14.30;9.97;;;6.10;99.90;;;;;;5002331;28;20669;-82
2022/04/12 03:20:11;;;;;;;18.07;10.80;;;6.10;99.90;;;;;;5004537;28;20212;-82
2022/04/12 03:22:37;;;;;;;16.40;10.70;;;6.00;99.90;;;;;;4997348;28;20219;-82
2022/04/12 03:25:05;;;;;;;17.73;10.23;;;6.10;99.90;;;;;;4999275;28;20215;-79
2022/04/12 03:27:32;;;;;;;15.57;10.17;;;6.10;99.90;;;;;;4999704;28;20248;-80
2022/04/12 03:29:59;;;;;;;17.20;11.00;;;6.00;99.90;;;;;;4999248;28;20238;-80
2022/04/12 03:32:26;;;;;;;19.60;11.57;;;6.00;99.90;;;;;;4998520;28;20265;-80
2022/04/12 03:34:52;;;;;;;16.13;11.03;;;6.00;99.90;;;;;;4997863;28;20209;-81
2022/04/12 03:37:19;;;;;;;15.63;10.43;;;6.00;99.90;;;;;;5002975;28;20576;-81
2022/04/12 03:39:48;;;;;;;15.97;10.87;;;5.90;99.90;;;;;;4997456;28;20274;-80
2022/04/12 03:42:16;;;;;;;17.53;9.93;;;5.90;99.90;;;;;;4998885;28;20243;-81
2022/04/12 03:44:43;;;;;;;19.73;10.40;;;6.20;99.90;;;;;;4998978;28;20244;-81
2022/04/12 03:47:10;;;;;;;16.17;9.87;;;5.60;99.90;;;;;;5000452;28;20266;-79
2022/04/12 03:49:37;;;;;;;17.67;11.07;;;5.80;99.90;;;;;;4999145;28;20208;-82
2022/04/12 03:52:05;;;;;;;17.37;11.27;;;6.50;99.90;;;;;;4998677;28;20227;-80
2022/04/12 03:54:31;;;;;;;18.07;11.77;;;5.70;99.90;;;;;;4999066;28;20328;-79
2022/04/12 03:56:58;;;;;;;19.77;11.47;;;5.70;99.90;;;;;;4998182;28;20565;-81
2022/04/12 03:59:25;;;;;;;15.90;10.83;;;5.60;99.90;;;;;;5000874;28;20204;-81
2022/04/12 04:01:52;;;;;;;20.67;11.23;;;;;;;;;;4998989;28;20209;-80
2022/04/12 04:04:20;;;;;;;19.07;10.93;;;5.60;99.90;;;;;;5003227;28;20192;-81
2022/04/12 04:06:46;;;;;;;17.87;10.77;;;5.50;99.90;;;;;;5005929;28;20217;-80
2022/04/12 04:09:13;;;;;;;17.67;11.33;;;5.40;99.90;;;;;;4999209;28;20240;-81
2022/04/12 04:11:40;;;;;;;22.53;12.20;;;5.40;99.90;;;;;;4999081;28;20206;-79
2022/04/12 04:14:09;;;;;;;17.70;11.97;;;5.40;99.90;;;;;;5001692;28;20326;-80
2022/04/12 04:16:39;;;;;;;18.23;11.40;;;5.30;99.90;;;;;;5003326;28;20226;-80
2022/04/12 04:19:09;;;;;;;18.17;10.90;;;5.30;99.90;;;;;;4995868;28;20224;-84
2022/04/12 04:21:36;;;;;;;20.67;10.60;;;5.30;99.90;;;;;;5007361;28;20581;-81
2022/04/12 04:24:04;;;;;;;18.43;11.57;;;5.20;99.90;;;;;;4998918;28;20205;-81
2022/04/12 04:26:31;;;;;;;21.00;12.17;;;5.20;99.90;;;;;;4999494;28;20252;-82
2022/04/12 04:28:58;;;;;;;19.30;11.47;;;5.10;99.90;;;;;;4997584;28;20780;-80
2022/04/12 04:31:25;;;;;;;18.90;11.57;;;5.10;99.90;;;;;;5011338;28;20270;-80
2022/04/12 04:33:56;;;;;;;22.97;11.93;;;5.10;99.90;;;;;;4997744;28;20261;-80
2022/04/12 04:36:23;;;;;;;23.80;12.03;;;5.00;99.90;;;;;;5000592;28;20205;-81
2022/04/12 04:38:50;;;;;;;22.97;13.70;;;5.00;99.90;;;;;;4996367;28;20262;-82
2022/04/12 04:41:17;;;;;;;21.03;12.60;;;5.00;99.90;;;;;;4998501;28;20217;-81
2022/04/12 04:43:46;;;;;;;26.27;13.53;;;5.00;99.90;;;;;;5000941;28;20217;-80
2022/04/12 04:46:14;;;;;;;22.10;12.93;;;4.90;99.90;;;;;;5005885;28;20719;-80
2022/04/12 04:48:42;;;;;;;22.67;12.60;;;4.90;99.90;;;;;;5005648;28;20199;-81
2022/04/12 04:51:09;;;;;;;20.83;12.83;;;5.00;99.90;;;;;;4996403;28;20217;-81
2022/04/12 04:53:37;;;;;;;19.17;11.37;;;5.00;99.90;;;;;;4999580;28;20237;-81
2022/04/12 04:56:07;;;;;;;20.00;12.50;;;5.00;99.90;;;;;;5002374;28;20216;-82
2022/04/12 04:58:34;;;;;;;21.33;12.53;;;5.00;99.90;;;;;;5007915;28;20662;-79
2022/04/12 05:01:01;;;;;;;22.63;12.67;;;5.00;99.90;;;;;;5006909;28;20211;-81
2022/04/12 05:03:28;;;;;;;22.80;12.40;;;5.10;99.90;;;;;;5006689;28;20291;-79
2022/04/12 05:05:55;;;;;;;20.60;12.13;;;5.10;99.90;;;;;;5011666;28;20240;-80
2022/04/12 05:08:21;;;;;;;20.30;11.67;;;5.20;99.90;;;;;;5008326;28;20242;-82
2022/04/12 05:10:48;;;;;;;19.80;12.33;;;5.30;99.90;;;;;;5006494;28;20728;-82
2022/04/12 05:13:16;;;;;;;20.00;12.30;;;5.30;99.90;;;;;;5008180;28;20318;-83
2022/04/12 05:15:43;;;;;;;18.90;11.83;;;5.40;99.90;;;;;;4997613;28;20217;-84
2022/04/12 05:18:10;;;;;;;20.53;12.57;;;5.50;99.90;;;;;;5001197;28;20522;-81
2022/04/12 05:20:37;;;;;;;20.30;12.03;;;5.50;99.90;;;;;;5007757;28;20206;-80
2022/04/12 05:23:10;;;;;;;19.83;11.47;;;5.60;99.90;;;;;;5012032;28;20249;-81
2022/04/12 05:25:37;;;;;;;19.97;12.33;;;5.60;99.90;;;;;;5024029;28;20625;-81
2022/04/12 05:28:04;;;;;;;17.73;11.17;;;5.70;99.90;;;;;;5007071;28;20294;-80
2022/04/12 05:30:31;;;;;;;22.40;12.43;;;5.80;99.90;;;;;;4998602;28;20317;-80
2022/04/12 05:32:58;;;;;;;20.27;12.13;;;5.90;99.90;;;;;;5008884;28;20308;-82
2022/04/12 05:35:25;;;;;;;20.20;12.20;;;5.90;99.90;;;;;;4994292;28;20219;-82
2022/04/12 05:37:53;;;;;;;22.17;12.10;;;6.00;99.90;;;;;;5001746;28;20219;-80
2022/04/12 05:40:21;;;;;;;22.53;12.17;;;6.10;99.90;;;;;;4999754;28;20239;-82
2022/04/12 05:42:49;;;;;;;21.53;12.30;;;6.20;99.90;;;;;;5004498;28;20259;-80
2022/04/12 05:45:16;;;;;;;19.90;12.00;;;6.20;99.90;;;;;;5003132;28;20249;-81
2022/04/12 05:47:49;;;;;;;18.77;11.27;;;6.30;99.90;;;;;;5009970;28;20305;-80
2022/04/12 05:50:21;;;;;;;25.63;16.60;;;6.40;99.90;;;;;;4995531;28;20247;-80
2022/04/12 05:52:48;;;;;;;21.27;14.50;;;6.50;99.90;;;;;;5003442;28;20313;-81
2022/04/12 05:55:17;;;;;;;19.03;13.03;;;6.60;99.90;;;;;;4997635;28;20535;-80
2022/04/12 05:57:49;;;;;;;19.83;12.50;;;6.60;99.90;;;;;;5004403;28;20592;-80
2022/04/12 06:00:18;;;;;;;18.27;13.00;;;6.70;99.90;;;;;;4997807;28;20356;-80
2022/04/12 06:02:46;;;;;;;17.40;12.43;;;6.80;99.90;;;;;;5001808;28;20214;-80
2022/04/12 06:05:14;;;;;;;18.10;12.47;;;6.90;99.90;;;;;;4998802;28;20210;-81
2022/04/12 06:07:41;;;;;;;22.87;12.60;;;6.90;99.90;;;;;;5002406;28;20653;-82
2022/04/12 06:10:10;;;;;;;23.87;13.47;;;7.10;99.90;;;;;;5000758;28;20297;-81
2022/04/12 06:12:37;;;;;;;19.43;12.80;;;7.20;99.90;;;;;;5002474;28;20207;-81
2022/04/12 06:15:05;;;;;;;19.13;11.63;;;7.30;99.90;;;;;;5002739;28;20321;-82
2022/04/12 06:17:33;;;;;;;20.73;11.27;;;7.30;99.90;;;;;;5004038;28;20727;-82
2022/04/12 06:20:02;;;;;;;18.43;11.47;;;7.40;99.90;;;;;;5002294;28;20207;-80
2022/04/12 06:22:28;;;;;;;18.23;11.40;;;7.50;99.90;;;;;;5000090;28;20570;-79
2022/04/12 06:24:56;;;;;;;17.97;10.80;;;7.60;99.90;;;;;;5000794;28;20265;-81
2022/04/12 06:27:34;;;;;;;16.97;10.10;;;7.80;99.90;;;;;;5002787;28;20601;-81
2022/04/12 06:30:09;;;;;;;19.97;10.30;;;7.90;99.90;;;;;;5000672;28;20208;-80
2022/04/12 06:32:36;;;;;;;18.77;11.10;;;8.10;99.90;;;;;;4998968;28;20557;-80
2022/04/12 06:35:06;;;;;;;16.13;10.30;;;8.20;99.90;;;;;;5001395;28;20319;-81
2022/04/12 06:37:33;;;;;;;15.77;9.93;;;8.40;99.90;;;;;;5000314;28;20331;-81
2022/04/12 06:40:01;;;;;;;13.57;10.00;;;8.60;99.90;;;;;;5001312;28;20659;-79
2022/04/12 06:42:28;;;;;;;11.63;8.97;;;8.70;99.90;;;;;;5000743;28;20748;-81
2022/04/12 06:44:55;;;;;;;15.20;10.63;;;8.90;99.90;;;;;;5001175;28;20237;-80
2022/04/12 06:47:22;;;;;;;13.63;9.43;;;9.30;99.90;;;;;;4997768;28;20207;-80
2022/04/12 06:49:52;;;;;;;13.27;9.23;;;10.10;99.90;;;;;;5002140;28;20204;-79
2022/04/12 06:52:20;;;;;;;14.60;8.23;;;11.10;99.90;;;;;;5000874;28;20260;-79
2022/04/12 06:54:47;;;;;;;15.43;8.60;;;11.80;99.90;;;;;;5003146;28;20876;-78
2022/04/12 06:57:15;;;;;;;11.43;8.20;;;;;;;;;;4998185;28;20302;-80
2022/04/12 06:59:42;;;;;;;10.37;8.17;;;12.40;99.90;;;;;;4997662;28;20620;-81
2022/04/12 07:02:10;;;;;;;13.07;8.10;;;12.90;99.90;;;;;;5006522;28;20617;-79
2022/04/12 07:04:37;;;;;;;10.37;7.40;;;13.70;99.90;;;;;;5005174;28;20652;-79
2022/04/12 07:07:04;;;;;;;9.77;7.50;;;14.40;99.90;;;;;;5005418;28;20306;-81
2022/04/12 07:09:32;;;;;;;11.23;7.33;;;15.00;99.90;;;;;;5003157;28;20673;-80
2022/04/12 07:12:00;;;;;;;10.73;7.40;;;15.60;99.90;;;;;;5010340;28;20210;-81
2022/04/12 07:14:29;;;;;;;10.65;7.22;;;16.10;99.90;;;;;;5011073;28;20317;-79
2022/04/12 07:16:56;;;;;;;10.18;7.13;;;16.50;99.90;;;;;;5009003;28;20199;-84
2022/04/12 07:19:24;;;;;;;8.57;6.82;;;16.90;99.90;;;;;;5004192;28;20213;-83
2022/04/12 07:21:51;;;;;;;12.00;6.95;;;17.20;99.90;;;;;;5006019;28;20301;-82
2022/04/12 07:24:18;;;;;;;9.45;7.47;;;16.80;99.90;;;;;;5001879;28;20210;-82
2022/04/12 07:26:45;;;;;;;8.55;6.70;;;16.70;99.90;;;;;;5000820;28;20552;-81
2022/04/12 07:29:12;;;;;;;10.40;6.72;;;16.90;99.90;;;;;;5012905;28;20301;-81
2022/04/12 07:31:38;;;;;;;9.82;7.90;;;17.00;99.90;;;;;;5011970;28;20198;-84
2022/04/12 07:34:07;;;;;;;12.68;7.20;;;17.00;99.90;;;;;;5008685;28;20234;-82
2022/04/12 07:36:36;;;;;;;8.05;6.40;;;16.90;99.90;;;;;;5009040;28;20372;-82
2022/04/12 07:39:04;;;;;;;8.77;6.85;;;17.00;99.90;;;;;;5005128;28;20717;-83
2022/04/12 07:41:31;;;;;;;8.93;6.80;;;17.20;99.90;;;;;;5004406;28;20230;-83
2022/04/12 07:43:58;;;;;;;8.63;6.47;;;17.30;99.90;;;;;;5007868;28;20736;-83
2022/04/12 07:46:24;;;;;;;9.77;6.63;;;17.50;99.90;;;;;;5007006;28;20207;-85
2022/04/12 07:48:51;;;;;;;9.80;7.03;;;17.50;99.90;;;;;;5009893;28;20215;-82
2022/04/12 07:51:18;;;;;;;10.70;6.78;;;17.40;99.90;;;;;;5011121;28;20224;-83
2022/04/12 07:53:45;;;;;;;10.38;7.05;;;17.30;99.70;;;;;;5008017;28;20268;-84
2022/04/12 07:56:12;;;;;;;9.18;6.72;;;17.10;99.80;;;;;;5004706;28;20667;-83
2022/04/12 07:58:38;;;;;;;11.25;7.38;;;17.10;99.80;;;;;;5006624;28;20214;-84
2022/04/12 08:01:06;;;;;;;13.00;7.38;;;16.90;99.60;;;;;;5004859;28;20198;-84
2022/04/12 08:03:36;;;;;;;10.52;7.03;;;17.00;99.70;;;;;;5007583;28;20728;-84
2022/04/12 08:06:04;;;;;;;10.00;6.82;;;17.10;99.70;;;;;;5005591;28;20226;-83
2022/04/12 08:08:32;;;;;;;10.15;6.60;;;17.40;99.70;;;;;;5008353;28;20686;-88
2022/04/12 08:10:59;;;;;;;11.25;7.15;;;17.70;99.00;;;;;;5007124;28;20253;-87
2022/04/12 08:13:31;;;;;;;12.93;8.18;;;18.00;98.90;;;;;;5014482;28;20593;-86
2022/04/12 08:15:58;;;;;;;8.90;6.25;;;18.20;98.80;;;;;;5005766;28;20578;-85
2022/04/12 08:18:25;;;;;;;10.68;7.07;;;18.60;98.40;;;;;;5006113;28;20250;-84
2022/04/12 08:20:54;;;;;;;10.45;6.80;;;18.90;97.60;;;;;;5011250;28;20207;-84
2022/04/12 08:23:25;;;;;;;10.80;6.47;;;19.00;97.10;;;;;;5007845;28;20214;-83
2022/04/12 08:25:53;;;;;;;9.82;5.95;;;19.20;97.00;;;;;;5006410;28;20261;-86
2022/04/12 08:28:20;;;;;;;9.43;6.22;;;19.20;96.60;;;;;;5008453;28;20231;-87
2022/04/12 08:30:51;;;;;;;11.20;6.63;;;19.40;96.40;;;;;;5012724;28;20210;-86
2022/04/12 08:33:19;;;;;;;8.02;6.25;;;19.50;95.40;;;;;;5008414;28;20206;-87
2022/04/12 08:35:46;;;;;;;11.00;6.60;;;19.50;94.90;;;;;;5005301;28;20231;-82
2022/04/12 08:38:13;;;;;;;9.85;6.20;;;19.50;94.40;;;;;;5005235;28;20297;-85
2022/04/12 08:40:40;;;;;;;10.32;6.60;;;19.40;94.50;;;;;;5003176;28;20217;-81
2022/04/12 08:43:08;;;;;;;9.88;6.25;;;19.40;94.00;;;;;;5002339;28;20572;-83
2022/04/12 08:45:36;;;;;;;9.68;6.25;;;19.50;93.70;;;;;;5002809;28;20270;-86
2022/04/12 08:48:08;;;;;;;13.95;6.63;;;19.50;93.60;;;;;;5006682;28;20226;-85
2022/04/12 08:50:37;;;;;;;12.43;6.63;;;19.50;93.90;;;;;;5009850;28;20273;-87
2022/04/12 08:53:04;;;;;;;9.60;6.20;;;19.60;94.00;;;;;;5002641;28;20215;-84
2022/04/12 08:55:32;;;;;;;12.38;6.28;;;19.60;93.60;;;;;;5019028;28;20272;-86
2022/04/12 08:57:59;;;;;;;13.02;6.43;;;19.70;93.30;;;;;;5013960;28;20229;-85
2022/04/12 09:00:25;;;;;;;9.05;6.47;;;19.90;93.80;;;;;;5009140;28;20231;-83
2022/04/12 09:02:57;;;;;;;9.75;6.25;;;20.20;93.70;;;;;;5004904;28;20190;-81
2022/04/12 09:05:25;;;;;;;11.20;6.65;;;20.50;93.20;;;;;;5001422;28;20238;-82
2022/04/12 09:07:54;;;;;;;8.90;6.05;;;21.30;92.80;;;;;;5008440;28;20284;-83
2022/04/12 09:10:31;;;;;;;9.75;6.28;;;20.40;92.50;;;;;;5007490;28;20632;-83
2022/04/12 09:13:09;;;;;;;11.80;6.43;;;20.70;92.90;;;;;;5013381;28;20215;-86
2022/04/12 09:15:46;;;;;;;10.57;6.70;;;20.60;91.90;;;;;;5006362;28;20234;-83
2022/04/12 09:18:42;;;;;;;9.88;6.60;;;20.60;92.10;;;;;;5014196;28;20256;-84
2022/04/12 09:21:17;;;;;;;10.75;6.55;;;20.50;92.20;;;;;;5008275;28;20225;-83
2022/04/12 09:23:49;;;;;;;9.65;6.80;;;20.40;91.90;;;;;;5012803;28;20666;-83
2022/04/12 09:26:21;;;;;;;9.38;6.38;;;20.40;92.20;;;;;;5006779;28;20204;-85
2022/04/12 09:28:50;;;;;;;8.88;6.18;;;20.50;92.40;;;;;;4998183;28;20286;-83
2022/04/12 09:31:21;;;;;;;10.95;6.53;;;20.70;92.60;;;;;;5007038;28;20206;-82
2022/04/12 09:33:50;;;;;;;13.15;6.28;;;20.90;92.40;;;;;;5007319;28;20203;-82
2022/04/12 09:36:17;;;;;;;10.63;6.28;;;21.00;92.40;;;;;;5004662;28;20305;-84
2022/04/12 09:38:46;;;;;;;10.43;6.50;;;21.10;92.20;;;;;;5004593;28;20281;-82
2022/04/12 09:41:24;;;;;;;12.90;6.40;;;21.10;92.00;;;;;;5004431;28;20268;-82
2022/04/12 09:43:53;;;;;;;11.18;6.85;;;21.10;91.70;;;;;;5001673;28;20195;-83
2022/04/12 09:46:21;;;;;;;9.70;6.30;;;20.90;91.40;;;;;;5006275;28;20290;-82
2022/04/12 09:48:49;;;;;;;11.10;6.53;;;20.90;91.50;;;;;;5007867;28;20225;-82
2022/04/12 09:51:17;;;;;;;9.52;5.88;;;20.80;91.70;;;;;;5005703;28;20287;-83
2022/04/12 09:53:47;;;;;;;10.05;6.78;;;20.60;91.70;;;;;;5006219;28;21414;-82
2022/04/12 09:56:24;;;;;;;9.40;6.63;;;20.50;91.60;;;;;;5006221;28;20229;-83
2022/04/12 09:58:56;;;;;;;10.07;6.60;;;20.30;91.80;;;;;;5002370;28;20654;-83
2022/04/12 10:01:23;;;;;;;8.90;6.13;;;20.20;92.60;;;;;;5008167;28;20634;-84
2022/04/12 10:04:00;;;;;;;10.07;6.47;;;20.30;92.30;;;;;;5005303;28;20205;-81
2022/04/12 10:06:28;;;;;;;11.50;6.45;;;20.20;92.00;;;;;;5006269;28;20725;-86
2022/04/12 10:08:59;;;;;;;11.75;6.85;;;20.40;92.30;;;;;;5011481;28;20202;-84
2022/04/12 10:11:26;;;;;;;10.32;7.03;;;20.30;92.20;;;;;;5014341;28;20221;-84
2022/04/12 10:13:53;;;;;;;10.73;6.70;;;20.40;92.50;;;;;;5012976;28;20289;-84
2022/04/12 10:16:21;;;;;;;9.30;6.18;;;20.40;92.60;;;;;;5003298;28;20651;-83
2022/04/12 10:18:49;;;;;;;9.98;6.55;;;20.30;92.70;;;;;;4997610;28;20235;-82
2022/04/12 10:21:16;;;;;;;10.27;6.68;;;20.50;92.40;;;;;;5004957;28;20209;-82
2022/04/12 10:23:48;;;;;;;13.23;7.38;;;20.50;92.60;;;;;;5003868;28;20622;-81
2022/04/12 10:26:23;;;;;;;8.55;6.30;;;20.60;92.90;;;;;;5004942;28;20198;-83
2022/04/12 10:29:04;;;;;;;12.35;6.57;;;20.60;92.80;;;;;;5001825;28;20341;-83
2022/04/12 10:31:32;;;;;;;10.20;6.55;;;20.60;92.70;;;;;;5014896;28;20217;-83
2022/04/12 10:34:09;;;;;;;10.60;6.53;;;20.70;92.80;;;;;;5002228;28;20206;-83
2022/04/12 10:36:55;;;;;;;9.65;6.65;;;20.70;92.40;;;;;;5006146;28;20631;-81
2022/04/12 10:39:47;;;;;;;11.82;6.43;;;20.60;92.10;;;;;;5004693;28;20201;-82
2022/04/12 10:42:20;;;;;;;10.57;6.43;;;20.40;92.50;;;;;;5001623;28;20237;-84
2022/04/12 10:44:52;;;;;;;10.75;6.10;;;20.40;92.70;;;;;;5002650;28;20207;-83
2022/04/12 10:47:25;;;;;;;9.77;6.15;;;20.40;92.80;;;;;;5009719;28;20670;-83
2022/04/12 10:49:53;;;;;;;10.93;6.35;;;20.40;92.70;;;;;;5005261;28;20202;-85
2022/04/12 10:52:32;;;;;;;11.05;6.18;;;20.50;92.60;;;;;;5003468;28;20211;-83
2022/04/12 10:55:00;;;;;;;8.90;6.47;;;20.60;93.10;;;;;;5002904;28;20729;-83
2022/04/12 10:57:27;;;;;;;9.57;5.75;;;20.70;92.50;;;;;;5005378;28;20202;-83
2022/04/12 11:00:11;;;;;;;11.70;6.00;;;20.90;92.20;;;;;;5002854;28;20742;-82
2022/04/12 11:02:51;;;;;;;8.93;6.20;;;21.10;92.00;;;;;;5004634;28;20249;-83
2022/04/12 11:05:33;;;;;;;11.70;5.32;;;21.30;91.70;;;;;;5006876;28;20264;-83
2022/04/12 11:08:04;;;;;;;10.52;5.72;;;21.50;91.80;;;;;;5003433;28;20239;-84
2022/04/12 11:10:37;;;;;;;12.18;6.25;;;21.60;91.40;;;;;;5011894;28;20217;-84
2022/04/12 11:13:11;;;;;;;11.77;6.15;;;21.70;91.40;;;;;;5013573;28;20206;-85
2022/04/12 11:15:39;;;;;;;13.18;6.30;;;21.70;91.40;;;;;;5006025;28;20704;-86
2022/04/12 11:18:14;;;;;;;12.27;6.82;;;21.80;91.50;;;;;;5005782;28;20600;-85
2022/04/12 11:20:43;;;;;;;13.13;6.45;;;21.70;91.60;;;;;;5006981;28;20218;-84
2022/04/12 11:23:12;;;;;;;8.93;5.97;;;21.60;91.40;;;;;;5025630;28;20238;-84
2022/04/12 11:25:51;;;;;;;9.88;6.30;;;21.50;91.70;;;;;;5006163;28;20373;-85
2022/04/12 11:28:24;;;;;;;9.95;6.18;;;21.50;91.50;;;;;;5006150;28;20206;-87
2022/04/12 11:30:57;;;;;;;13.40;6.15;;;21.50;91.60;;;;;;4998438;28;20293;-85
2022/04/12 11:33:28;;;;;;;12.13;6.45;;;21.30;91.50;;;;;;4996007;28;20258;-86
2022/04/12 11:35:56;;;;;;;10.13;5.75;;;21.30;91.40;;;;;;5000557;28;20312;-84
2022/04/12 11:38:24;;;;;;;10.40;6.55;;;21.20;91.60;;;;;;4999103;28;20227;-86
2022/04/12 11:40:52;;;;;;;11.55;7.10;;;21.20;91.90;;;;;;5000293;28;20638;-86
2022/04/12 11:43:26;;;;;;;11.20;6.47;;;21.00;92.20;;;;;;4999757;28;20294;-86
2022/04/12 11:45:56;;;;;;;10.57;6.55;;;21.00;92.40;;;;;;5012106;28;20658;-86
2022/04/12 11:48:31;;;;;;;16.02;6.60;;;20.90;91.90;;;;;;4998160;28;20613;-85
2022/04/12 11:51:03;;;;;;;10.75;6.20;;;20.80;92.00;;;;;;5006052;28;20695;-86
2022/04/12 11:53:30;;;;;;;9.45;5.70;;;20.70;92.20;;;;;;4997621;28;20281;-85
2022/04/12 11:56:03;;;;;;;12.25;6.03;;;20.80;92.50;;;;;;5009508;28;20253;-83
2022/04/12 11:58:30;;;;;;;11.35;6.78;;;20.80;92.30;;;;;;5006983;28;20202;-84
2022/04/12 12:00:58;;;;;;;11.95;6.80;;;20.80;92.40;;;;;;4994831;28;20207;-84
2022/04/12 12:03:28;;;;;;;8.75;5.55;;;20.80;92.30;;;;;;5003270;28;20633;-84
2022/04/12 12:05:57;;;;;;;10.15;5.43;;;20.80;92.70;;;;;;5006621;28;20640;-85
2022/04/12 12:08:24;;;;;;;9.07;5.63;;;20.80;92.50;;;;;;5000851;28;20627;-84
2022/04/12 12:10:52;;;;;;;17.05;5.88;;;20.80;92.70;;;;;;5009216;28;20221;-85
2022/04/12 12:13:26;;;;;;;10.82;6.07;;;20.90;92.60;;;;;;5009777;28;20202;-85
2022/04/12 12:15:53;;;;;;;13.15;6.28;;;21.20;92.70;;;;;;5004346;28;20674;-84
2022/04/12 12:18:20;;;;;;;8.50;5.10;;;21.40;92.30;;;;;;5002511;28;20325;-85
2022/04/12 12:20:47;;;;;;;7.90;5.20;;;21.70;92.00;;;;;;5002819;28;20353;-84
2022/04/12 12:23:14;;;;;;;8.85;5.65;;;22.00;92.00;;;;;;5011157;28;20222;-85
2022/04/12 12:25:47;;;;;;;8.68;4.90;;;22.20;91.60;;;;;;5007310;28;20622;-84
2022/04/12 12:28:19;;;;;;;9.07;5.60;;;22.40;91.30;;;;;;5008070;28;20571;-84
2022/04/12 12:30:48;;;;;;;25.48;6.28;;;22.40;91.30;;;;;;5016451;28;20249;-85
2022/04/12 12:33:15;;;;;;;8.20;4.75;;;22.60;91.30;;;;;;5003917;28;20207;-84
2022/04/12 12:35:46;;;;;;;10.07;4.93;;;22.60;90.80;;;;;;5005935;28;20397;-85
2022/04/12 12:38:16;;;;;;;9.98;4.65;;;22.60;90.60;;;;;;5004531;28;20653;-85
2022/04/12 12:40:44;;;;;;;10.07;5.07;;;22.60;90.30;;;;;;5012080;28;20238;-87
2022/04/12 12:43:14;;;;;;;7.85;4.78;;;22.50;90.20;;;;;;5008072;28;20210;-87
2022/04/12 12:45:46;;;;;;;7.25;4.22;;;22.40;90.30;;;;;;4993722;28;20215;-84
2022/04/12 12:48:17;;;;;;;6.53;3.42;;;22.40;90.20;;;;;;5003199;28;20351;-84
2022/04/12 12:50:45;;;;;;;5.78;3.28;;;22.40;90.00;;;;;;4991519;28;20219;-82